Time;durP1;ratioP1;P1;durP2;ratioP2;P2;SDS_P1;SDS_P2;PMS_P1;PMS_P2;Temp;Humidity;BMP_temperature;BMP_pressure;BME280_temperature;BME280_humidity;BME280_pressure;Samples;Min_cycle;Max_cycle;Signal;HPM_P1;HPM_P2
2023/02/27 00:02:04;;;;;;;2.35;0.95;;;;;;;;;;5112838;28;20050;-37
2023/02/27 00:04:30;;;;;;;1.35;0.70;;;;;;;;;;5113034;28;20027;-37
2023/02/27 00:06:56;;;;;;;1.75;0.80;;;;;;;;;;5094588;28;20040;-37
2023/02/27 00:09:22;;;;;;;2.55;1.02;;;;;;;;;;5112927;28;20190;-34
2023/02/27 00:11:48;;;;;;;1.67;0.75;;;;;;;;;;5113291;28;20028;-37
2023/02/27 00:14:14;;;;;;;2.60;1.05;;;;;;;;;;5112919;28;20039;-37
2023/02/27 00:16:40;;;;;;;1.95;0.75;;;;;;;;;;5112458;28;20024;-36
2023/02/27 00:19:06;;;;;;;2.00;0.80;;;;;;;;;;5112633;28;20028;-37
2023/02/27 00:21:34;;;;;;;2.20;0.77;;;;;;;;;;5112559;28;20098;-35
2023/02/27 00:24:00;;;;;;;2.50;0.90;;;;;;;;;;5112735;28;20024;-34
2023/02/27 00:26:26;;;;;;;3.10;1.02;;;;;;;;;;5112585;28;20078;-37
2023/02/27 00:28:52;;;;;;;2.42;0.95;;;;;;;;;;5112146;28;20037;-42
2023/02/27 00:31:18;;;;;;;0.77;0.65;;;;;;;;;;5112488;27;20256;-42
2023/02/27 00:33:44;;;;;;;1.42;0.77;;;;;;;;;;5112666;28;20508;-42
2023/02/27 00:36:10;;;;;;;2.08;0.90;;;;;;;;;;5111781;28;20023;-41
2023/02/27 00:38:36;;;;;;;1.25;0.70;;;;;;;;;;5112017;28;20058;-42
2023/02/27 00:41:02;;;;;;;1.65;0.80;;;;;;;;;;5112148;28;20036;-41
2023/02/27 00:43:28;;;;;;;2.22;0.80;;;;;;;;;;5110905;28;20020;-42
2023/02/27 00:45:54;;;;;;;1.42;0.60;;;;;;;;;;5112187;28;20035;-42
2023/02/27 00:48:20;;;;;;;1.23;0.75;;;;;;;;;;5112210;28;20492;-42
2023/02/27 00:50:47;;;;;;;1.38;0.70;;;;;;;;;;5112207;28;20036;-42
2023/02/27 00:53:13;;;;;;;1.70;0.90;;;;;;;;;;5112281;28;20082;-41
2023/02/27 00:55:39;;;;;;;1.98;0.85;;;;;;;;;;5111911;28;20470;-42
2023/02/27 00:58:05;;;;;;;2.83;1.00;;;;;;;;;;5111750;28;20504;-42
2023/02/27 01:00:31;;;;;;;1.38;0.65;;;;;;;;;;5093668;28;20032;-42
2023/02/27 01:02:57;;;;;;;1.88;0.90;;;;;;;;;;5111906;28;20019;-42
2023/02/27 01:05:23;;;;;;;1.38;0.80;;;;;;;;;;5111902;28;20394;-42
2023/02/27 01:07:49;;;;;;;2.40;1.00;;;;;;;;;;5111718;28;20035;-42
2023/02/27 01:10:16;;;;;;;1.00;0.80;;;;;;;;;;5111737;28;20512;-42
2023/02/27 01:12:42;;;;;;;1.40;0.75;;;;;;;;;;5111771;28;20031;-41
2023/02/27 01:15:09;;;;;;;2.42;0.90;;;;;;;;;;5112004;28;20024;-42
2023/02/27 01:17:35;;;;;;;1.77;0.90;;;;;;;;;;5111488;28;20020;-42
2023/02/27 01:20:01;;;;;;;2.53;0.70;;;;;;;;;;5111723;28;20022;-42
2023/02/27 01:22:27;;;;;;;2.30;0.90;;;;;;;;;;5111699;28;20472;-41
2023/02/27 01:24:53;;;;;;;1.45;0.90;;;;;;;;;;5111601;28;20012;-41
2023/02/27 01:27:19;;;;;;;1.70;0.93;;;;;;;;;;5111455;28;20505;-39
2023/02/27 01:29:45;;;;;;;2.05;0.93;;;;;;;;;;5111866;28;20110;-41
2023/02/27 01:32:11;;;;;;;1.90;0.73;;;;;;;;;;5111815;28;20032;-41
2023/02/27 01:34:37;;;;;;;1.75;0.82;;;;;;;;;;5111816;28;20051;-41
2023/02/27 01:37:03;;;;;;;1.40;0.68;;;;;;;;;;5110039;28;20027;-42
2023/02/27 01:39:31;;;;;;;1.02;0.80;;;;;;;;;;5110577;28;20076;-41
2023/02/27 01:41:58;;;;;;;0.88;0.70;;;;;;;;;;5110189;28;20019;-41
2023/02/27 01:44:28;;;;;;;1.15;0.80;;;;;;;;;;5110541;28;20127;-42
2023/02/27 01:46:55;;;;;;;2.05;0.80;;;;;;;;;;5111552;28;20107;-42
2023/02/27 01:49:41;;;;;;;2.17;0.95;;;;;;;;;;5113045;28;20497;-41
2023/02/27 01:52:09;;;;;;;2.03;0.70;;;;;;;;;;5115441;28;20443;-42
2023/02/27 01:54:38;;;;;;;2.42;0.90;;;;;;;;;;5115594;28;20031;-42
2023/02/27 01:57:05;;;;;;;1.38;0.80;;;;;;;;;;5114090;28;20509;-41
2023/02/27 01:59:32;;;;;;;2.53;0.90;;;;;;;;;;5115559;28;20027;-41
2023/02/27 02:01:59;;;;;;;1.25;0.70;;;;;;;;;;5115915;28;20020;-42
2023/02/27 02:04:26;;;;;;;0.77;0.60;;;;;;;;;;5115546;28;20027;-41
2023/02/27 02:07:03;;;;;;;1.80;0.90;;;;;;;;;;5115287;28;20362;-41
2023/02/27 02:09:30;;;;;;;1.52;0.77;;;;;;;;;;5115563;28;20020;-42
2023/02/27 02:11:57;;;;;;;1.27;0.77;;;;;;;;;;5114297;27;20405;-40
2023/02/27 02:14:23;;;;;;;1.95;1.10;;;;;;;;;;5115297;28;20024;-36
2023/02/27 02:17:08;;;;;;;2.53;0.90;;;;;;;;;;5115157;28;20045;-41
2023/02/27 02:19:47;;;;;;;1.50;0.90;;;;;;;;;;5115060;28;20019;-42
2023/02/27 02:22:19;;;;;;;1.92;1.00;;;;;;;;;;5115265;27;20016;-42
2023/02/27 02:24:45;;;;;;;1.20;0.80;;;;;;;;;;5115064;28;20423;-42
2023/02/27 02:27:27;;;;;;;1.00;0.70;;;;;;;;;;5114671;28;20041;-42
2023/02/27 02:30:08;;;;;;;2.53;1.10;;;;;;;;;;5113838;28;20184;-40
2023/02/27 02:32:34;;;;;;;1.73;0.90;;;;;;;;;;5114924;28;20058;-41
2023/02/27 02:35:06;;;;;;;1.52;0.93;;;;;;;;;;5114813;28;20057;-42
2023/02/27 02:37:48;;;;;;;1.75;0.80;;;;;;;;;;5114415;28;20063;-41
2023/02/27 02:40:33;;;;;;;2.15;0.82;;;;;;;;;;5113615;28;20023;-42
2023/02/27 02:43:02;;;;;;;1.48;0.80;;;;;;;;;;5114817;28;20038;-42
2023/02/27 02:45:34;;;;;;;1.17;0.82;;;;;;;;;;5114892;27;20103;-40
2023/02/27 02:48:15;;;;;;;1.63;0.90;;;;;;;;;;5112982;28;20081;-42
2023/02/27 02:50:41;;;;;;;2.58;0.90;;;;;;;;;;5114636;28;20370;-42
2023/02/27 02:53:17;;;;;;;1.85;0.82;;;;;;;;;;5114690;27;20073;-39
2023/02/27 02:55:47;;;;;;;2.00;0.88;;;;;;;;;;5114475;28;20366;-42
2023/02/27 02:58:16;;;;;;;2.08;0.80;;;;;;;;;;5114243;28;20393;-42
2023/02/27 03:01:17;;;;;;;1.83;0.93;;;;;;;;;;5113772;28;20362;-41
2023/02/27 03:03:46;;;;;;;1.80;0.95;;;;;;;;;;5071237;28;20053;-42
2023/02/27 03:06:21;;;;;;;1.25;0.85;;;;;;;;;;5106122;28;20031;-39
2023/02/27 03:08:54;;;;;;;1.23;0.77;;;;;;;;;;5114113;28;20023;-42
2023/02/27 03:11:23;;;;;;;2.42;0.82;;;;;;;;;;5112748;28;20089;-40
2023/02/27 03:13:53;;;;;;;2.22;0.80;;;;;;;;;;5114202;28;20077;-39
2023/02/27 03:16:32;;;;;;;1.58;0.90;;;;;;;;;;5113809;28;20020;-38
2023/02/27 03:19:07;;;;;;;1.00;0.75;;;;;;;;;;5112621;28;20026;-42
2023/02/27 03:21:53;;;;;;;1.58;0.80;;;;;;;;;;5114091;28;20099;-40
2023/02/27 03:24:25;;;;;;;2.40;1.00;;;;;;;;;;5113834;28;20370;-42
2023/02/27 03:26:53;;;;;;;2.55;0.95;;;;;;;;;;5113707;28;20405;-38
2023/02/27 03:29:26;;;;;;;2.42;1.10;;;;;;;;;;5112527;28;20030;-42
2023/02/27 03:31:56;;;;;;;1.55;0.98;;;;;;;;;;5113796;28;20020;-41
2023/02/27 03:34:35;;;;;;;2.55;1.00;;;;;;;;;;5113794;28;20088;-42
2023/02/27 03:37:08;;;;;;;3.22;0.80;;;;;;;;;;5113599;28;20027;-38
2023/02/27 03:39:34;;;;;;;1.38;0.77;;;;;;;;;;5113652;28;20031;-41
2023/02/27 03:42:05;;;;;;;1.42;0.80;;;;;;;;;;5113521;28;20026;-41
2023/02/27 03:44:43;;;;;;;2.30;0.90;;;;;;;;;;5113692;28;20051;-42
2023/02/27 03:47:09;;;;;;;2.00;0.80;;;;;;;;;;5113227;28;20027;-41
2023/02/27 03:49:35;;;;;;;1.98;0.90;;;;;;;;;;5113649;28;20069;-42
2023/02/27 03:52:02;;;;;;;1.25;0.70;;;;;;;;;;5113302;28;20114;-41
2023/02/27 03:54:35;;;;;;;2.00;1.00;;;;;;;;;;5113249;28;20558;-40
2023/02/27 03:57:04;;;;;;;2.67;0.75;;;;;;;;;;5111656;28;20040;-42
2023/02/27 03:59:30;;;;;;;2.05;1.02;;;;;;;;;;5113189;28;20370;-42
2023/02/27 04:01:57;;;;;;;2.05;1.00;;;;;;;;;;5113265;28;20104;-42
2023/02/27 04:04:24;;;;;;;2.75;0.90;;;;;;;;;;5111909;28;20165;-36
2023/02/27 04:09:50;;;;;;;1.75;0.93;;;;;;;;;;5112880;28;20042;-34
2023/02/27 04:12:36;;;;;;;1.90;0.93;;;;;;;;;;5112863;28;20023;-35
2023/02/27 04:15:02;;;;;;;1.27;0.82;;;;;;;;;;5112738;28;20370;-32
2023/02/27 04:17:32;;;;;;;1.52;1.00;;;;;;;;;;5113109;28;20038;-34
2023/02/27 04:20:17;;;;;;;1.35;1.00;;;;;;;;;;5113326;28;20032;-33
2023/02/27 04:22:46;;;;;;;1.88;1.00;;;;;;;;;;5112883;27;20024;-31
2023/02/27 04:25:21;;;;;;;1.75;1.10;;;;;;;;;;5112573;28;20099;-33
2023/02/27 04:27:52;;;;;;;2.75;0.90;;;;;;;;;;5112884;28;20055;-37
2023/02/27 04:30:21;;;;;;;1.23;1.00;;;;;;;;;;5112429;27;20024;-41
2023/02/27 04:33:00;;;;;;;1.98;0.85;;;;;;;;;;5112277;28;20076;-37
2023/02/27 04:35:31;;;;;;;1.45;0.95;;;;;;;;;;5112336;28;20473;-40
2023/02/27 04:38:00;;;;;;;2.90;1.00;;;;;;;;;;5113103;28;20019;-41
2023/02/27 04:40:35;;;;;;;2.30;0.90;;;;;;;;;;5113273;28;20060;-40
2023/02/27 04:43:03;;;;;;;1.30;0.95;;;;;;;;;;5112218;28;20534;-42
2023/02/27 04:45:31;;;;;;;2.42;1.00;;;;;;;;;;5111106;28;20023;-42
2023/02/27 04:48:08;;;;;;;2.15;1.05;;;;;;;;;;5112833;28;20106;-40
2023/02/27 04:50:36;;;;;;;2.20;1.10;;;;;;;;;;5113082;28;20083;-42
2023/02/27 04:53:11;;;;;;;3.08;0.90;;;;;;;;;;5112071;28;20028;-35
2023/02/27 04:55:40;;;;;;;1.70;1.00;;;;;;;;;;5112275;28;20031;-33
2023/02/27 04:58:12;;;;;;;2.55;1.10;;;;;;;;;;5111781;28;20489;-34
2023/02/27 05:00:39;;;;;;;1.13;0.80;;;;;;;;;;5111859;28;20028;-34
2023/02/27 05:03:09;;;;;;;4.28;1.38;;;;;;;;;;5112271;28;20046;-34
2023/02/27 05:05:37;;;;;;;2.50;1.20;;;;;;;;;;5111915;28;20016;-32
2023/02/27 05:08:03;;;;;;;1.92;0.90;;;;;;;;;;5112025;28;20477;-34
2023/02/27 05:10:33;;;;;;;2.83;0.93;;;;;;;;;;5112374;28;20055;-36
2023/02/27 05:13:03;;;;;;;2.08;1.00;;;;;;;;;;5110661;28;20482;-34
2023/02/27 05:15:29;;;;;;;2.03;1.10;;;;;;;;;;5111921;28;20031;-31
2023/02/27 05:17:55;;;;;;;1.90;0.85;;;;;;;;;;5111519;28;20512;-33
2023/02/27 05:20:24;;;;;;;1.20;0.80;;;;;;;;;;5111803;28;20024;-34
2023/02/27 05:22:50;;;;;;;2.72;1.23;;;;;;;;;;5113481;28;20023;-33
2023/02/27 05:25:21;;;;;;;2.60;1.20;;;;;;;;;;5118667;28;20103;-31
2023/02/27 05:27:50;;;;;;;1.00;0.80;;;;;;;;;;5118548;27;20034;-33
2023/02/27 05:30:26;;;;;;;2.67;1.13;;;;;;;;;;5118875;27;20117;-33
2023/02/27 05:32:59;;;;;;;2.17;1.10;;;;;;;;;;5117323;27;20524;-35
2023/02/27 05:35:44;;;;;;;1.35;1.05;;;;;;;;;;5117282;27;20027;-32
2023/02/27 05:38:16;;;;;;;3.35;1.15;;;;;;;;;;5118855;27;20602;-33
2023/02/27 05:41:08;;;;;;;1.52;1.00;;;;;;;;;;5118865;27;20023;-37
2023/02/27 05:43:37;;;;;;;2.50;1.00;;;;;;;;;;5116519;28;20078;-37
2023/02/27 05:46:18;;;;;;;2.83;1.55;;;;;;;;;;5118701;27;20026;-32
2023/02/27 05:48:47;;;;;;;1.98;0.90;;;;;;;;;;5118791;27;20036;-34
2023/02/27 05:51:14;;;;;;;3.72;1.23;;;;;;;;;;5119024;27;20027;-37
2023/02/27 05:53:43;;;;;;;2.33;1.00;;;;;;;;;;5118705;27;20028;-34
2023/02/27 05:56:12;;;;;;;1.75;1.17;;;;;;;;;;5118099;27;20027;-33
2023/02/27 05:58:43;;;;;;;2.90;1.13;;;;;;;;;;5118757;27;20020;-32
2023/02/27 06:01:11;;;;;;;1.40;0.88;;;;;;;;;;5118152;27;20035;-35
2023/02/27 06:03:38;;;;;;;2.63;1.17;;;7.20;99.90;;;;;;5117478;27;20024;-33
2023/02/27 06:06:17;;;;;;;1.70;1.15;;;7.50;99.90;;;;;;5118093;27;20107;-38
2023/02/27 06:08:43;;;;;;;4.07;1.17;;;7.60;99.90;;;;;;5118551;28;20077;-31
2023/02/27 06:11:12;;;;;;;3.13;1.40;;;7.80;99.90;;;;;;5118478;27;20063;-36
2023/02/27 06:13:37;;;;;;;2.75;1.30;;;7.90;99.90;;;;;;5118328;28;20026;-34
2023/02/27 06:16:03;;;;;;;2.08;0.85;;;7.90;99.90;;;;;;5118149;27;20024;-37
2023/02/27 06:18:29;;;;;;;2.33;1.08;;;7.90;99.90;;;;;;5117931;27;20032;-42
2023/02/27 06:20:54;;;;;;;3.53;1.13;;;7.80;99.90;;;;;;5117976;28;20219;-42
2023/02/27 06:23:20;;;;;;;3.00;1.10;;;7.70;99.90;;;;;;5117980;28;20019;-41
2023/02/27 06:25:47;;;;;;;3.30;1.30;;;7.60;99.90;;;;;;5117856;28;20110;-40
2023/02/27 06:28:13;;;;;;;5.18;1.27;;;7.60;99.90;;;;;;5117861;28;20079;-42
2023/02/27 06:30:38;;;;;;;1.83;1.02;;;7.50;99.90;;;;;;5117648;28;20027;-39
2023/02/27 06:33:04;;;;;;;2.13;1.08;;;7.40;99.90;;;;;;5118328;28;20027;-39
2023/02/27 06:35:30;;;;;;;2.50;1.25;;;7.30;99.90;;;;;;5114282;28;20051;-39
2023/02/27 06:37:56;;;;;;;1.83;1.20;;;7.30;99.90;;;;;;5114898;28;20102;-40
2023/02/27 06:40:22;;;;;;;1.73;1.10;;;7.30;99.90;;;;;;5115556;28;20114;-37
2023/02/27 06:42:48;;;;;;;2.58;1.05;;;7.20;99.90;;;;;;5113455;28;20103;-39
2023/02/27 06:45:15;;;;;;;2.65;1.20;;;7.20;99.90;;;;;;5114469;28;20016;-39
2023/02/27 06:47:41;;;;;;;4.43;1.00;;;7.10;99.90;;;;;;5114283;28;20405;-40
2023/02/27 06:50:09;;;;;;;1.83;1.10;;;;;;;;;;5114433;28;20031;-39
2023/02/27 06:52:34;;;;;;;3.03;1.25;;;;;;;;;;5114657;28;20032;-31
2023/02/27 06:55:00;;;;;;;2.78;1.02;;;;;;;;;;5114376;27;20028;-31
2023/02/27 06:57:26;;;;;;;2.72;1.27;;;;;;;;;;5114567;28;20019;-32
2023/02/27 06:59:52;;;;;;;3.65;1.40;;;;;;;;;;5113789;28;20035;-36
2023/02/27 07:02:18;;;;;;;2.85;1.08;;;;;;;;;;5114147;28;20020;-35
2023/02/27 07:04:44;;;;;;;2.72;1.08;;;;;;;;;;5114157;28;20027;-33
2023/02/27 07:07:10;;;;;;;2.40;1.20;;;;;;;;;;5113907;28;20081;-32
2023/02/27 07:09:36;;;;;;;2.70;1.23;;;;;;;;;;5112859;28;20023;-31
2023/02/27 07:12:03;;;;;;;2.03;1.10;;;;;;;;;;5113923;28;20027;-31
2023/02/27 07:14:29;;;;;;;3.17;1.08;;;;;;;;;;5114142;28;20028;-31
2023/02/27 07:16:55;;;;;;;2.88;0.88;;;;;;;;;;5113602;28;20031;-32
2023/02/27 07:19:22;;;;;;;3.78;1.00;;;;;;;;;;5113900;28;20048;-32
2023/02/27 07:21:48;;;;;;;1.90;1.02;;;;;;;;;;5112417;28;20541;-34
2023/02/27 07:24:14;;;;;;;2.35;1.27;;;;;;;;;;5113797;28;20036;-33
2023/02/27 07:26:40;;;;;;;4.47;1.13;;;;;;;;;;5113415;28;20016;-33
2023/02/27 07:29:08;;;;;;;2.08;1.10;;;;;;;;;;5113603;28;20106;-35
2023/02/27 07:31:34;;;;;;;3.95;1.05;;;;;;;;;;5113574;28;20039;-38
2023/02/27 07:34:00;;;;;;;2.03;1.00;;;;;;;;;;5113576;28;20359;-35
2023/02/27 07:36:26;;;;;;;1.88;1.23;;;;;;;;;;5114345;28;20034;-32
2023/02/27 07:38:53;;;;;;;2.65;1.30;;;;;;;;;;5113847;27;20020;-32
2023/02/27 07:41:19;;;;;;;1.58;1.02;;;;;;;;;;5114267;27;20020;-37
2023/02/27 07:43:45;;;;;;;1.63;1.15;;;;;;;;;;5113343;28;20028;-35
2023/02/27 07:46:11;;;;;;;1.35;0.90;;;;;;;;;;5112719;28;20058;-33
2023/02/27 07:48:38;;;;;;;2.08;1.02;;;;;;;;;;5113303;28;20016;-35
2023/02/27 07:51:04;;;;;;;1.80;1.05;;;;;;;;;;5113210;28;20504;-32
2023/02/27 07:53:30;;;;;;;1.75;0.85;;;;;;;;;;5113349;28;20417;-31
2023/02/27 07:55:56;;;;;;;2.72;1.10;;;;;;;;;;5112892;28;20396;-33
2023/02/27 07:58:22;;;;;;;2.60;1.20;;;;;;;;;;5113017;28;20034;-36
2023/02/27 08:00:48;;;;;;;3.88;1.00;;;;;;;;;;5112897;28;20028;-32
2023/02/27 08:03:14;;;;;;;1.05;0.80;;;;;;;;;;5112999;27;20019;-32
2023/02/27 08:05:40;;;;;;;3.67;1.17;;;;;;;;;;5112788;28;20077;-36
2023/02/27 08:08:06;;;;;;;1.00;0.80;;;;;;;;;;5112959;28;20039;-34
2023/02/27 08:10:32;;;;;;;2.03;0.93;;;;;;;;;;5113475;28;20034;-38
2023/02/27 08:12:58;;;;;;;1.80;1.10;;;;;;;;;;5112662;28;20110;-36
2023/02/27 08:15:24;;;;;;;3.20;1.00;;;;;;;;;;5112826;28;20099;-34
2023/02/27 08:17:50;;;;;;;2.28;0.93;;;;;;;;;;5113078;28;20023;-33
2023/02/27 08:20:17;;;;;;;2.50;1.00;;;;;;;;;;5112652;28;20024;-36
2023/02/27 08:22:43;;;;;;;2.00;1.10;;;;;;;;;;5113782;27;20042;-34
2023/02/27 08:25:10;;;;;;;2.22;1.00;;;;;;;;;;5112903;28;20388;-32
2023/02/27 08:27:36;;;;;;;2.05;1.05;;;;;;;;;;5112259;28;20023;-33
2023/02/27 08:30:03;;;;;;;1.70;0.93;;;;;;;;;;5112724;28;20110;-37
2023/02/27 08:32:29;;;;;;;2.05;1.10;;;;;;;;;;5112354;28;20386;-40
2023/02/27 08:34:55;;;;;;;2.33;1.08;;;;;;;;;;5112467;28;20031;-41
2023/02/27 08:37:21;;;;;;;2.10;1.20;;;;;;;;;;5112755;28;20056;-38
2023/02/27 08:39:47;;;;;;;2.35;1.05;;;;;;;;;;5112778;28;20487;-34
2023/02/27 08:42:14;;;;;;;3.63;1.25;;;;;;;;;;5112278;28;20027;-34
2023/02/27 08:44:40;;;;;;;2.33;1.08;;;;;;;;;;5112310;28;20015;-32
2023/02/27 08:47:06;;;;;;;1.85;1.10;;;;;;;;;;5111980;28;20031;-39
2023/02/27 08:49:32;;;;;;;2.03;1.00;;;;;;;;;;5112317;28;20038;-42
2023/02/27 08:51:58;;;;;;;2.30;1.23;;;;;;;;;;5112180;28;20077;-32
2023/02/27 08:54:24;;;;;;;2.92;1.30;;;;;;;;;;5111942;28;20396;-36
2023/02/27 08:56:50;;;;;;;2.95;1.13;;;;;;;;;;5112005;28;20027;-40
2023/02/27 08:59:16;;;;;;;2.58;1.17;;;;;;;;;;5111223;28;20027;-32
2023/02/27 09:01:42;;;;;;;2.03;1.10;;;;;;;;;;5111961;28;20062;-33
2023/02/27 09:04:08;;;;;;;3.55;1.48;;;;;;;;;;5111963;28;20081;-41
2023/02/27 09:06:35;;;;;;;2.10;1.00;;;;;;;;;;5111731;28;20055;-38
2023/02/27 09:09:01;;;;;;;2.33;1.15;;;;;;;;;;5111772;28;20447;-40
2023/02/27 09:11:27;;;;;;;1.48;1.00;;;;;;;;;;5111788;28;20019;-41
2023/02/27 09:13:53;;;;;;;2.30;1.17;;;;;;;;;;5111859;28;20027;-33
2023/02/27 09:16:20;;;;;;;1.65;1.13;;;;;;;;;;5112378;28;20046;-38
2023/02/27 09:18:47;;;;;;;3.95;1.10;;;;;;;;;;5112368;28;20028;-37
2023/02/27 09:21:13;;;;;;;1.90;1.08;;;;;;;;;;5111721;28;20024;-41
2023/02/27 09:23:40;;;;;;;2.67;1.00;;;;;;;;;;5112340;28;20020;-37
2023/02/27 09:26:08;;;;;;;1.55;1.00;;;;;;;;;;5111507;28;20073;-34
2023/02/27 09:28:34;;;;;;;1.48;0.90;;;;;;;;;;5111706;28;20051;-39
2023/02/27 09:31:04;;;;;;;2.35;1.20;;;;;;;;;;5111707;28;20452;-41
2023/02/27 09:33:31;;;;;;;2.10;1.30;;;;;;;;;;5111781;28;20024;-34
2023/02/27 09:35:57;;;;;;;3.20;1.20;;;;;;;;;;5111549;28;20104;-38
2023/02/27 09:38:23;;;;;;;2.20;1.10;;;;;;;;;;5110060;28;20065;-40
2023/02/27 09:40:51;;;;;;;5.65;2.15;;;;;;;;;;5111522;28;20019;-38
2023/02/27 09:43:18;;;;;;;4.70;1.98;;;;;;;;;;5111522;28;20144;-41
2023/02/27 09:45:46;;;;;;;5.15;2.30;;;;;;;;;;5111384;28;20428;-31
2023/02/27 09:48:21;;;;;;;5.45;1.95;;;;;;;;;;5111507;28;20031;-36
2023/02/27 09:50:48;;;;;;;4.05;1.90;;;;;;;;;;5109967;28;20023;-41
2023/02/27 09:53:14;;;;;;;4.28;1.90;;;;;;;;;;5111446;28;20023;-40
2023/02/27 09:55:41;;;;;;;4.32;1.67;;;;;;;;;;5111353;28;20455;-36
2023/02/27 09:58:29;;;;;;;3.83;1.98;;;;;;;;;;5111194;28;20024;-42
2023/02/27 10:01:33;;;;;;;5.53;1.90;;;;;;;;;;5111606;28;20034;-42
2023/02/27 10:04:18;;;;;;;3.17;1.88;;;;;;;;;;5068794;28;20110;-40
2023/02/27 10:06:47;;;;;;;4.75;1.70;;;;;;;;;;5068040;28;20028;-43
2023/02/27 10:09:16;;;;;;;7.47;1.90;;;;;;;;;;5096066;28;20481;-42
2023/02/27 10:12:00;;;;;;;4.75;1.80;;;;;;;;;;5115118;28;20271;-36
2023/02/27 10:14:28;;;;;;;5.72;2.00;;;;;;;;;;5115142;28;20102;-35
2023/02/27 10:16:56;;;;;;;5.93;1.90;;;;;;;;;;5115461;28;20020;-31
2023/02/27 10:19:33;;;;;;;3.03;1.75;;;;;;;;;;5115078;28;20032;-40
2023/02/27 10:21:59;;;;;;;3.53;1.73;;;;;;;;;;5114798;28;20035;-36
2023/02/27 10:24:46;;;;;;;3.15;1.70;;;;;;;;;;5114950;27;20477;-31
2023/02/27 10:27:15;;;;;;;4.40;1.70;;;;;;;;;;5114673;28;20416;-35
2023/02/27 10:29:41;;;;;;;5.20;2.05;;;;;;;;;;5115095;28;20026;-34
2023/02/27 10:32:13;;;;;;;3.20;1.73;;;;;;;;;;5114708;28;20027;-40
2023/02/27 10:34:40;;;;;;;7.28;1.85;;;;;;;;;;5114816;27;20023;-42
2023/02/27 10:37:07;;;;;;;3.15;1.52;;;;;;;;;;5114325;28;20138;-43
2023/02/27 10:39:41;;;;;;;2.10;1.27;;;;;;;;;;5114970;28;20077;-42
2023/02/27 10:42:09;;;;;;;4.47;1.80;;;;;;;;;;5114646;28;20022;-43
2023/02/27 10:44:35;;;;;;;6.28;2.15;;;;;;;;;;5114642;28;20034;-41
2023/02/27 10:47:00;;;;;;;3.63;1.67;;;;;;;;;;5114374;28;20027;-31
2023/02/27 10:49:30;;;;;;;4.28;1.73;;;;;;;;;;5114657;28;20027;-43
2023/02/27 10:52:05;;;;;;;3.35;1.45;;;;;;;;;;5114352;28;20469;-40
2023/02/27 10:54:31;;;;;;;2.05;1.13;;;;;;;;;;5114541;27;20055;-40
2023/02/27 10:56:59;;;;;;;2.83;1.60;;;;;;;;;;5114043;28;20054;-31
2023/02/27 10:59:26;;;;;;;2.28;1.50;;;;;;;;;;5114182;28;20111;-43
2023/02/27 11:01:56;;;;;;;3.13;1.33;;;;;;;;;;5114048;28;20030;-41
2023/02/27 11:04:23;;;;;;;3.30;1.50;;;;;;;;;;5114438;28;20054;-41
2023/02/27 11:06:52;;;;;;;3.13;1.35;;;;;;;;;;5114420;28;20058;-41
2023/02/27 11:09:22;;;;;;;3.20;1.45;;;;;;;;;;5115604;28;20020;-42
2023/02/27 11:11:49;;;;;;;3.33;1.48;;;;;;;;;;5114033;28;20300;-42
2023/02/27 11:14:29;;;;;;;2.83;1.38;;;;;;;;;;5113995;28;20027;-34
2023/02/27 11:16:56;;;;;;;2.30;1.20;;;;;;;;;;5113642;28;20051;-36
2023/02/27 11:19:36;;;;;;;2.92;1.27;;;;;;;;;;5113958;28;20445;-32
2023/02/27 11:22:04;;;;;;;4.07;1.50;;;;;;;;;;5113115;27;20024;-35
2023/02/27 11:24:30;;;;;;;2.05;1.10;;;;;;;;;;5113648;28;20020;-33
2023/02/27 11:27:05;;;;;;;2.45;1.20;;;;;;;;;;5113375;28;20031;-32
2023/02/27 11:29:31;;;;;;;3.95;1.15;;;;;;;;;;5115368;28;20062;-31
2023/02/27 11:31:59;;;;;;;2.88;1.30;;;;;;;;;;5114799;28;20039;-36
2023/02/27 11:34:28;;;;;;;2.03;1.30;;;;;;;;;;5115790;28;20504;-35
2023/02/27 11:36:56;;;;;;;2.28;1.30;;;;;;;;;;5115201;28;20023;-41
2023/02/27 11:39:22;;;;;;;3.58;1.40;;;;;;;;;;5114202;27;20043;-32
2023/02/27 11:41:48;;;;;;;2.03;1.17;;;;;;;;;;5113711;28;20041;-31
2023/02/27 11:44:16;;;;;;;3.15;1.17;;;;;;;;;;5113465;28;20483;-31
2023/02/27 11:46:43;;;;;;;2.22;1.20;;;;;;;;;;5114611;28;20104;-34
2023/02/27 11:49:08;;;;;;;4.15;1.23;;;;;;;;;;5113568;28;20576;-41
2023/02/27 11:51:55;;;;;;;2.85;1.10;;;;;;;;;;5112142;28;20047;-42
2023/02/27 11:54:33;;;;;;;1.75;1.15;;;;;;;;;;5113285;28;20026;-42
2023/02/27 11:57:08;;;;;;;2.15;1.10;;;;;;;;;;5112856;28;20080;-32
2023/02/27 11:59:43;;;;;;;6.40;1.38;;;;;;;;;;5113203;28;20027;-41
2023/02/27 12:02:12;;;;;;;2.50;1.38;;;;;;;;;;5112998;28;20035;-38
2023/02/27 12:04:51;;;;;;;3.97;1.30;;;;;;;;;;5112902;28;20354;-32
2023/02/27 12:07:26;;;;;;;2.75;1.10;;;;;;;;;;5112935;28;20023;-38
2023/02/27 12:10:01;;;;;;;1.65;1.00;;;;;;;;;;5112913;28;20016;-33
2023/02/27 12:12:33;;;;;;;2.58;1.27;;;;;;;;;;5112781;28;20063;-33
2023/02/27 12:15:05;;;;;;;2.15;1.02;;;;;;;;;;5112735;28;20024;-32
2023/02/27 12:17:57;;;;;;;3.05;1.35;;;;;;;;;;5112456;28;20043;-31
2023/02/27 12:20:26;;;;;;;1.80;1.00;;;;;;;;;;5096340;28;20028;-41
2023/02/27 12:22:53;;;;;;;3.95;1.10;;;;;;;;;;5113171;28;20054;-42
2023/02/27 12:25:33;;;;;;;3.08;1.35;;;;;;;;;;5112427;28;20024;-40
2023/02/27 12:28:02;;;;;;;1.10;0.82;;;;;;;;;;5112428;28;20382;-42
2023/02/27 12:30:49;;;;;;;2.50;1.20;;;;;;;;;;5112558;28;20505;-42
2023/02/27 12:33:18;;;;;;;4.95;1.40;;;;;;;;;;5104046;28;20103;-41
2023/02/27 12:35:46;;;;;;;3.03;1.60;;;;;;;;;;5106706;27;20019;-34
2023/02/27 12:38:14;;;;;;;4.53;1.52;;;;;;;;;;5097048;27;20024;-40
2023/02/27 12:40:46;;;;;;;4.50;1.60;;;;;;;;;;5102256;28;20415;-38
2023/02/27 12:43:30;;;;;;;4.82;1.48;;;;;;;;;;5097432;28;20024;-41
2023/02/27 12:46:12;;;;;;;2.85;1.40;;;;;;;;;;5111759;28;20389;-39
2023/02/27 12:48:50;;;;;;;3.33;1.73;;;;;;;;;;5112287;28;20069;-38
2023/02/27 12:51:19;;;;;;;2.28;1.27;;;;;;;;;;5111987;28;20027;-38
2023/02/27 12:53:53;;;;;;;3.60;1.40;;;;;;;;;;5112139;28;20478;-41
2023/02/27 12:56:21;;;;;;;1.88;1.40;;;;;;;;;;5113321;27;20099;-38
2023/02/27 12:59:03;;;;;;;1.88;1.23;;;;;;;;;;5112046;28;20023;-37
2023/02/27 13:01:38;;;;;;;4.07;1.50;;;;;;;;;;5111955;28;20034;-38
2023/02/27 13:04:11;;;;;;;2.13;1.30;;;;;;;;;;5111990;28;20393;-41
2023/02/27 13:06:37;;;;;;;2.28;1.30;;;;;;;;;;5112887;28;20024;-39
2023/02/27 13:09:04;;;;;;;2.85;1.33;;;;;;;;;;5110696;28;20020;-40
2023/02/27 13:11:32;;;;;;;2.03;1.25;;;;;;;;;;5111920;28;20024;-41
2023/02/27 13:14:10;;;;;;;1.98;1.30;;;;;;;;;;5112000;28;20026;-42
2023/02/27 13:16:40;;;;;;;2.50;1.52;;;;;;;;;;5111542;28;20028;-39
2023/02/27 13:19:12;;;;;;;1.60;1.00;;;;;;;;;;5111695;28;20019;-41
2023/02/27 13:21:40;;;;;;;4.88;1.30;;;;;;;;;;5111616;28;20423;-41
2023/02/27 13:24:16;;;;;;;2.00;1.45;;;;;;;;;;5111730;28;20019;-42
2023/02/27 13:26:44;;;;;;;3.42;1.55;;;;;;;;;;5111509;28;20030;-39
2023/02/27 13:29:14;;;;;;;5.65;1.67;;;;;;;;;;5111681;28;20111;-40
2023/02/27 13:31:40;;;;;;;5.18;1.30;;;;;;;;;;5112056;28;20023;-38
2023/02/27 13:34:24;;;;;;;3.17;1.38;;;;;;;;;;5111512;28;20087;-38
2023/02/27 13:36:52;;;;;;;2.85;1.52;;;;;;;;;;5111353;28;20030;-41
2023/02/27 13:39:38;;;;;;;3.00;1.00;;;;;;;;;;5111605;28;20021;-38
2023/02/27 13:42:04;;;;;;;2.55;1.08;;;;;;;;;;5111585;28;20019;-41
2023/02/27 13:44:38;;;;;;;2.28;1.17;;;;;;;;;;5113425;28;20038;-41
2023/02/27 13:47:22;;;;;;;3.05;1.40;;;;;;;;;;5115799;28;20029;-41
2023/02/27 13:49:48;;;;;;;4.85;1.35;;;;;;;;;;5115850;28;20145;-33
2023/02/27 13:52:27;;;;;;;5.10;1.67;;;;;;;;;;5115592;28;20062;-33
2023/02/27 13:54:53;;;;;;;2.00;1.10;;;;;;;;;;5115579;28;20027;-40
2023/02/27 13:57:21;;;;;;;3.08;1.20;;;;;;;;;;5115256;28;20477;-38
2023/02/27 13:59:52;;;;;;;4.40;1.25;;;;;;;;;;5115344;28;20042;-39
2023/02/27 14:02:41;;;;;;;2.53;1.20;;;;;;;;;;5115428;27;20027;-41
2023/02/27 14:05:09;;;;;;;3.63;1.20;;;;;;;;;;5109809;28;20373;-40
2023/02/27 14:07:52;;;;;;;1.45;0.90;;;;;;;;;;5115225;28;20050;-41
2023/02/27 14:10:20;;;;;;;2.17;1.23;;;;;;;;;;5115517;28;20035;-40
2023/02/27 14:12:46;;;;;;;4.70;1.42;;;;;;;;;;5115121;28;20027;-36
2023/02/27 14:15:25;;;;;;;2.35;1.30;;;;;;;;;;5115185;28;20451;-41
2023/02/27 14:17:58;;;;;;;2.80;1.38;;;;;;;;;;5114710;28;20510;-41
2023/02/27 14:20:26;;;;;;;2.97;1.20;;;;;;;;;;5115081;27;20034;-39
2023/02/27 14:23:10;;;;;;;2.00;1.15;;;;;;;;;;5115078;28;20034;-36
2023/02/27 14:25:36;;;;;;;;;;;;;;;;;;5115302;28;20028;-36
2023/02/27 14:28:03;;;;;;;3.33;1.15;;;;;;;;;;5114682;28;19904;-38
2023/02/27 14:30:34;;;;;;;1.80;1.10;;;;;;;;;;5115752;28;20098;-41
2023/02/27 14:33:05;;;;;;;3.17;1.10;;;;;;;;;;5113752;28;20077;-38
2023/02/27 14:35:32;;;;;;;2.70;1.05;;;;;;;;;;5114939;28;20030;-41
2023/02/27 14:37:59;;;;;;;2.58;0.95;;;;;;;;;;5113417;28;20069;-38
2023/02/27 14:40:28;;;;;;;1.58;1.15;;;;;;;;;;5115016;28;20031;-38
2023/02/27 14:43:04;;;;;;;2.17;1.00;;;;;;;;;;5114544;28;20024;-40
2023/02/27 14:45:30;;;;;;;3.05;1.00;;;;;;;;;;5115016;28;20020;-40
2023/02/27 14:47:57;;;;;;;1.80;0.95;;;;;;;;;;5114670;28;20036;-39
2023/02/27 14:50:26;;;;;;;2.97;1.40;;;;;;;;;;5115080;28;20031;-33
2023/02/27 14:52:52;;;;;;;4.38;1.20;;;;;;;;;;5113244;28;20425;-39
2023/02/27 14:55:26;;;;;;;1.95;1.10;;;;;;;;;;5114179;28;20092;-38
2023/02/27 14:57:52;;;;;;;;;;;;;;;;;;5113477;28;20064;-40